Time;durP1;ratioP1;P1;durP2;ratioP2;P2;SDS_P1;SDS_P2;PMS_P1;PMS_P2;Temp;Humidity;BMP_temperature;BMP_pressure;BME280_temperature;BME280_humidity;BME280_pressure;Samples;Min_cycle;Max_cycle;Signal;HPM_P1;HPM_P2
2022/06/27 00:02:26;;;;;;;4.50;1.67;;;;;;;17.67;92.64;100476.09;5110291;28;20089;-73
2022/06/27 00:05:29;;;;;;;4.57;1.77;;;;;;;17.81;91.66;100461.78;5110622;28;20070;-74
2022/06/27 00:08:34;;;;;;;5.03;1.45;;;;;;;17.86;91.41;100455.09;5110975;28;20058;-74
2022/06/27 00:11:38;;;;;;;6.50;1.40;;;;;;;17.53;92.23;100469.31;5110138;28;20130;-74
2022/06/27 00:14:41;;;;;;;2.03;0.90;;;;;;;17.78;90.44;100468.16;5111185;28;20049;-74
2022/06/27 00:17:45;;;;;;;3.55;1.27;;;;;;;17.88;90.76;100479.63;5111456;28;20051;-73
2022/06/27 00:20:48;;;;;;;4.72;1.48;;;;;;;17.77;91.46;100466.47;5110749;28;20092;-73
2022/06/27 00:23:51;;;;;;;4.93;1.17;;;;;;;17.88;91.05;100478.81;5109531;28;20093;-73
2022/06/27 00:26:55;;;;;;;4.00;1.58;;;;;;;17.99;90.04;100485.81;5110552;28;20101;-73
2022/06/27 00:29:58;;;;;;;6.97;1.35;;;;;;;17.76;91.78;100477.16;5110520;28;20085;-73
2022/06/27 00:33:01;;;;;;;2.92;1.13;;;;;;;17.82;91.32;100469.56;5110712;28;20043;-73
2022/06/27 00:36:05;;;;;;;6.13;2.15;;;;;;;17.41;93.93;100465.84;5111218;28;20062;-73
2022/06/27 00:39:08;;;;;;;2.85;1.30;;;;;;;17.70;92.81;100465.25;5109334;28;20571;-73
2022/06/27 00:42:11;;;;;;;3.30;1.08;;;;;;;17.86;92.35;100478.91;5109620;28;20043;-73
2022/06/27 00:45:15;;;;;;;4.00;1.20;;;;;;;17.92;92.04;100469.63;5109778;28;20123;-74
2022/06/27 00:48:18;;;;;;;2.90;0.93;;;;;;;18.02;90.75;100475.00;5109986;28;20096;-74
2022/06/27 00:51:24;;;;;;;3.50;1.40;;;;;;;17.96;90.81;100470.22;5109393;28;20089;-73
2022/06/27 00:54:27;;;;;;;8.18;0.98;;;;;;;18.03;90.49;100474.03;5108971;28;20050;-73
2022/06/27 00:57:30;;;;;;;4.38;1.23;;;;;;;17.84;91.38;100472.94;5109015;28;20046;-73
2022/06/27 01:00:34;;;;;;;3.58;1.10;;;;;;;17.93;90.92;100476.59;5110221;28;20041;-74
2022/06/27 01:03:37;;;;;;;4.45;1.20;;;;;;;17.84;92.06;100483.50;5109021;28;20047;-73
2022/06/27 01:06:41;;;;;;;2.70;1.13;;;;;;;17.88;91.99;100495.50;5109047;28;20466;-74
2022/06/27 01:09:44;;;;;;;3.47;1.00;;;;;;;17.87;92.76;100485.91;5088830;28;20192;-73
2022/06/27 01:12:49;;;;;;;4.47;1.00;;;;;;;18.04;91.62;100502.16;5088966;28;20522;-73
2022/06/27 01:15:53;;;;;;;5.32;1.48;;;;;;;17.92;92.42;100484.66;5088783;28;20354;-73
2022/06/27 01:18:56;;;;;;;3.83;1.27;;;;;;;17.96;91.50;100494.03;5088038;28;20547;-73
2022/06/27 01:22:00;;;;;;;4.35;1.05;;;;;;;17.99;92.20;100480.53;5106300;28;20047;-73
2022/06/27 01:25:03;;;;;;;4.97;1.33;;;;;;;18.07;91.65;100478.09;5109323;28;20035;-73
2022/06/27 01:28:08;;;;;;;3.60;1.60;;;;;;;18.13;91.56;100472.28;5109160;28;20120;-73
2022/06/27 01:31:13;;;;;;;7.90;1.30;;;;;;;17.66;93.50;100463.84;5109271;28;20047;-73
2022/06/27 01:34:17;;;;;;;5.13;1.05;;;;;;;17.85;92.14;100460.53;5108744;28;20149;-73
2022/06/27 01:37:21;;;;;;;4.32;1.27;;;;;;;17.93;92.11;100465.19;5108158;28;20051;-73
2022/06/27 01:40:26;;;;;;;2.97;1.17;;;;;;;17.83;92.54;100447.44;5108540;28;20091;-73
2022/06/27 01:43:29;;;;;;;2.78;1.23;;;;;;;18.03;92.19;100434.34;5096680;28;20054;-74
2022/06/27 01:46:51;;;;;;;3.97;1.08;;;;;;;17.93;92.02;100434.28;5108105;28;20128;-74
2022/06/27 01:49:54;;;;;;;6.85;1.20;;;;;;;18.03;92.38;100429.06;5108004;28;20062;-74
2022/06/27 01:53:02;;;;;;;4.30;1.17;;;;;;;17.84;92.41;100425.31;5107499;28;20204;-74
2022/06/27 01:56:06;;;;;;;3.53;1.40;;;;;;;17.85;92.46;100421.69;5106557;28;20420;-74
2022/06/27 01:59:14;;;;;;;2.80;1.08;;;;;;;17.81;93.38;100436.16;5107043;28;20515;-74
2022/06/27 02:02:19;;;;;;;3.60;1.25;;;;;;;17.83;93.81;100431.56;5107333;28;20088;-74
2022/06/27 02:05:23;;;;;;;3.00;1.08;;;;;;;17.83;93.72;100428.91;5105537;28;20412;-74
2022/06/27 02:08:31;;;;;;;3.30;0.80;;;;;;;17.91;92.93;100424.81;5106955;28;20043;-73
2022/06/27 02:11:37;;;;;;;4.57;1.23;;;;;;;17.67;94.00;100423.22;5108757;28;20042;-74
2022/06/27 02:14:41;;;;;;;4.97;1.80;;;;;;;17.95;93.50;100413.81;5106829;28;20054;-73
2022/06/27 02:17:44;;;;;;;3.42;1.10;;;;;;;18.03;92.76;100418.47;5106844;28;20079;-74
2022/06/27 02:20:49;;;;;;;3.83;1.20;;;;;;;17.99;92.45;100411.75;5108873;28;20084;-73
2022/06/27 02:23:54;;;;;;;4.30;1.00;;;;;;;18.06;92.14;100412.91;5111766;28;20073;-73
2022/06/27 02:27:00;;;;;;;3.92;1.20;;;;;;;18.05;92.07;100412.06;5110688;28;20047;-74
2022/06/27 02:30:05;;;;;;;6.13;1.27;;;;;;;18.10;92.03;100414.34;5105018;28;20688;-73
2022/06/27 02:33:08;;;;;;;4.15;1.35;;;;;;;17.99;92.14;100412.59;5092699;28;20156;-73
2022/06/27 02:36:36;;;;;;;6.82;2.75;;;;;;;17.82;93.58;100408.75;5112209;28;20042;-73
2022/06/27 02:39:40;;;;;;;3.90;1.40;;;;;;;17.83;93.29;100418.34;5111551;28;20077;-73
2022/06/27 02:42:44;;;;;;;4.47;1.77;;;;;;;17.83;92.67;100418.34;5111262;28;20078;-73
2022/06/27 02:45:48;;;;;;;2.83;1.10;;;;;;;17.84;92.86;100421.84;5111516;28;20127;-73
2022/06/27 02:48:51;;;;;;;5.47;1.30;;;;;;;17.80;92.93;100417.75;5110165;28;20059;-73
2022/06/27 02:52:09;;;;;;;4.63;1.33;;;;;;;17.75;93.04;100401.44;5111574;28;20082;-73
2022/06/27 02:55:27;;;;;;;5.65;1.50;;;;;;;17.62;93.80;100404.25;5110504;28;20047;-73
2022/06/27 02:58:49;;;;;;;5.75;1.63;;;;;;;17.66;93.72;100403.03;5109412;28;20077;-73
2022/06/27 03:01:56;;;;;;;4.30;1.25;;;;;;;17.74;93.06;100384.72;5112064;28;20050;-74
2022/06/27 03:05:08;;;;;;;4.35;1.45;;;;;;;17.70;92.58;100388.56;5111691;28;20046;-74
2022/06/27 03:08:12;;;;;;;8.77;1.40;;;;;;;17.57;93.27;100374.72;5112199;28;20050;-74
2022/06/27 03:11:19;;;;;;;5.95;1.30;;;;;;;17.72;93.36;100386.66;5111693;28;20064;-74
2022/06/27 03:14:24;;;;;;;4.72;1.48;;;;;;;17.73;92.94;100383.03;5111660;28;20073;-75
2022/06/27 03:17:28;;;;;;;12.88;1.55;;;;;;;17.69;93.05;100373.69;5110673;28;20499;-75
2022/06/27 03:20:51;;;;;;;5.53;1.30;;;;;;;17.61;93.32;100370.84;5112226;28;20459;-74
2022/06/27 03:24:01;;;;;;;5.22;1.55;;;;;;;17.75;92.71;100367.06;5111291;28;20042;-75
2022/06/27 03:27:05;;;;;;;6.50;1.58;;;;;;;17.74;92.28;100374.16;5111711;28;20046;-75
2022/06/27 03:30:09;;;;;;;6.97;1.40;;;;;;;17.66;92.67;100387.16;5111287;28;20070;-74
2022/06/27 03:33:14;;;;;;;5.28;1.40;;;;;;;17.67;92.83;100372.97;5089966;28;20071;-74
2022/06/27 03:36:33;;;;;;;6.65;1.48;;;;;;;17.69;92.64;100371.03;5090726;28;20090;-74
2022/06/27 03:39:37;;;;;;;4.07;1.33;;;;;;;17.71;92.61;100382.34;5090910;28;20105;-73
2022/06/27 03:42:41;;;;;;;2.50;1.05;;;;;;;17.75;92.88;100377.63;5090293;28;20043;-74
2022/06/27 03:45:44;;;;;;;5.72;1.52;;;;;;;17.87;92.34;100388.03;5100509;28;20035;-74
2022/06/27 03:52:44;;;;;;;10.50;1.90;;;;;;;17.75;92.91;100436.66;5111944;28;20053;-73
2022/06/27 03:55:50;;;;;;;6.20;1.60;;;;;;;17.61;94.42;100431.66;5110371;28;20046;-73
2022/06/27 03:58:56;;;;;;;6.72;1.60;;;;;;;17.64;95.12;100428.75;5107761;28;20046;-72
2022/06/27 04:02:02;;;;;;;3.72;1.00;;;;;;;17.78;94.11;100430.28;5109972;28;20092;-74
2022/06/27 04:05:15;;;;;;;7.38;2.13;;;;;;;17.65;94.67;100431.28;5110153;28;20031;-73
2022/06/27 04:08:19;;;;;;;4.03;1.17;;;;;;;17.91;93.36;100419.53;5110432;28;20467;-75
2022/06/27 04:11:23;;;;;;;4.95;1.40;;;;;;;17.98;93.16;100415.38;5109856;28;20046;-73
2022/06/27 04:14:30;;;;;;;2.58;1.50;;;;;;;17.74;93.99;100427.03;5109306;28;20047;-72
2022/06/27 04:17:58;;;;;;;5.07;1.50;;;;;;;17.86;93.92;100433.94;5109476;28;20511;-74
2022/06/27 04:21:32;;;;;;;8.85;2.42;;;;;;;17.90;93.27;100437.19;5082782;28;20070;-74
2022/06/27 04:25:13;;;;;;;6.05;2.20;;;;;;;18.11;91.06;100442.47;5109336;28;20047;-74
2022/06/27 04:28:24;;;;;;;7.20;2.15;;;;;;;18.18;91.13;100434.84;5109365;28;20078;-73
2022/06/27 04:31:28;;;;;;;5.75;3.88;;;;;;;17.85;91.50;100440.22;5110324;28;20041;-75
2022/06/27 04:34:31;;;;;;;4.28;3.83;;;;;;;17.71;92.57;100429.94;5109429;28;20121;-73
2022/06/27 04:37:34;;;;;;;5.95;4.68;;;;;;;17.42;95.34;100424.41;5089467;28;20401;-73
2022/06/27 04:41:08;;;;;;;8.77;4.60;;;;;;;17.78;93.62;100436.41;5105911;28;20411;-76
2022/06/27 04:44:18;;;;;;;5.25;3.88;;;;;;;17.96;93.07;100428.72;5087685;28;20035;-76
2022/06/27 04:47:44;;;;;;;4.95;4.10;;;;;;;18.04;92.44;100436.03;5088490;28;20074;-75
2022/06/27 04:50:53;;;;;;;6.53;5.15;;;;;;;18.12;92.03;100444.13;5087916;28;20047;-76
2022/06/27 04:53:58;;;;;;;8.82;5.63;;;;;;;18.19;91.85;100445.31;5089568;28;20043;-75
2022/06/27 04:57:03;;;;;;;9.70;6.05;;;;;;;18.04;92.72;100433.38;5097166;28;20042;-74
2022/06/27 05:00:12;;;;;;;6.60;5.47;;;;;;;18.08;92.65;100440.91;5109267;28;20070;-75
2022/06/27 05:03:50;;;;;;;6.47;5.88;;;;;;;17.82;92.87;100447.56;5068482;28;20047;-77
2022/06/27 05:06:59;;;;;;;7.18;6.47;;;;;;;17.51;95.59;100455.38;5102182;28;20050;-75
2022/06/27 05:10:04;;;;;;;7.95;7.10;;;;;;;17.71;94.54;100448.44;5088822;28;20043;-74
2022/06/27 05:13:13;;;;;;;7.95;7.10;;;;;;;17.80;93.53;100457.44;5089129;28;20181;-75
2022/06/27 05:16:17;;;;;;;8.70;7.80;;;;;;;17.63;93.76;100453.53;5090541;28;20081;-75
2022/06/27 05:19:22;;;;;;;8.52;7.18;;;;;;;17.72;93.86;100447.47;5089797;28;20320;-75
2022/06/27 05:22:27;;;;;;;7.95;7.15;;;;;;;17.67;93.29;100439.91;5088446;28;20050;-75
2022/06/27 05:25:31;;;;;;;10.00;7.55;;;;;;;17.37;95.69;100451.22;5107441;28;20038;-75
2022/06/27 05:28:38;;;;;;;7.82;6.85;;;;;;;17.57;95.36;100444.28;5109131;28;20105;-75
2022/06/27 05:31:50;;;;;;;10.48;8.20;;;;;;;17.36;96.09;100446.91;5109195;28;20047;-74
2022/06/27 05:34:55;;;;;;;10.57;7.30;;;;;;;17.37;96.25;100437.19;5108834;28;20125;-76
2022/06/27 05:37:59;;;;;;;13.27;8.40;;;;;;;17.57;94.70;100448.75;5097836;28;20055;-74
2022/06/27 05:41:03;;;;;;;15.13;9.07;;;;;;;17.13;97.11;100469.94;5108423;28;20116;-75
2022/06/27 05:44:10;;;;;;;11.18;8.30;;;;;;;17.19;97.92;100485.25;5108461;28;20042;-75
2022/06/27 05:47:16;;;;;;;14.35;9.07;;;;;;;17.21;98.00;100485.16;5108315;28;20050;-75
2022/06/27 05:50:37;;;;;;;11.25;9.52;;;;;;;17.25;95.82;100480.44;5099235;28;20530;-73
2022/06/27 05:53:44;;;;;;;14.07;9.45;;;;;;;17.49;94.31;100486.41;5107561;28;20057;-73
2022/06/27 05:56:48;;;;;;;9.95;8.95;;;;;;;17.75;92.64;100486.88;5107412;28;20176;-74
2022/06/27 05:59:55;;;;;;;11.82;8.50;;;;;;;17.68;92.22;100488.38;5108051;28;20416;-74
2022/06/27 06:03:02;;;;;;;12.90;9.45;;;;;;;17.53;92.22;100484.34;5107203;28;20535;-74
2022/06/27 06:06:06;;;;;;;12.82;8.98;;;;;;;17.66;91.75;100477.06;5106728;28;20084;-75
2022/06/27 06:13:58;;;;;;;13.90;10.73;;;;;;;18.23;90.86;100452.00;5058549;28;20096;-75
2022/06/27 06:17:03;;;;;;;11.65;9.52;;;;;;;18.29;90.12;100461.25;5107242;28;20047;-76
2022/06/27 06:20:07;;;;;;;9.65;8.65;;;;;;;18.13;90.21;100496.94;5108431;28;20051;-74
2022/06/27 06:23:12;;;;;;;12.77;9.18;;;;;;;18.13;89.60;100514.63;5107387;28;20055;-75
2022/06/27 06:26:27;;;;;;;10.50;8.57;;;;;;;17.77;89.61;100527.31;5085158;28;20510;-75
2022/06/27 06:29:31;;;;;;;13.27;9.27;;;;;;;17.80;89.92;100544.72;5108671;28;20457;-75
2022/06/27 06:32:38;;;;;;;12.40;9.13;;;;;;;18.06;88.91;100534.59;5095967;28;20073;-75
2022/06/27 06:35:42;;;;;;;11.32;8.45;;;;;;;17.89;88.57;100555.38;5095628;28;20042;-76
2022/06/27 06:38:49;;;;;;;10.60;8.63;;;;;;;17.90;89.56;100569.47;5106662;28;20088;-75
2022/06/27 06:41:53;;;;;;;11.57;9.43;;;;;;;18.13;88.07;100570.19;5107016;28;20046;-76
2022/06/27 06:45:00;;;;;;;12.48;10.20;;;;;;;17.98;87.37;100567.00;5103604;28;20097;-76
2022/06/27 06:48:22;;;;;;;10.38;9.05;;;;;;;18.12;88.09;100558.78;5087469;28;20051;-77
2022/06/27 06:51:27;;;;;;;15.18;9.40;;;;;;;18.46;84.91;100550.63;5093718;28;20408;-77
2022/06/27 06:54:31;;;;;;;15.88;10.25;;;;;;;18.57;83.65;100552.38;5107803;28;20053;-78
2022/06/27 06:57:35;;;;;;;15.27;9.70;;;;;;;18.46;83.80;100539.19;5107525;28;20055;-77
2022/06/27 07:00:39;;;;;;;12.68;9.30;;;;;;;18.49;83.74;100523.88;5095921;28;20127;-78
2022/06/27 07:03:49;;;;;;;12.90;8.63;;;;;;;18.61;81.47;100524.66;5107801;28;20043;-77
2022/06/27 07:06:54;;;;;;;15.55;10.48;;;;;;;18.64;81.72;100513.81;5105341;28;20047;-72
2022/06/27 07:09:59;;;;;;;14.38;9.52;;;;;;;18.62;81.26;100506.94;5096622;28;20085;-74
2022/06/27 07:13:05;;;;;;;16.45;9.70;;;;;;;18.75;82.17;100497.84;5107829;28;20038;-76
2022/06/27 07:16:16;;;;;;;11.57;9.27;;;;;;;19.00;83.74;100474.50;5107005;28;20038;-77
2022/06/27 07:19:20;;;;;;;14.25;9.93;;;;;;;19.01;82.71;100481.47;5106312;28;20576;-78
2022/06/27 07:22:30;;;;;;;12.93;8.93;;;;;;;19.15;82.93;100486.41;5109926;28;20093;-74
2022/06/27 07:25:44;;;;;;;13.63;10.25;;;;;;;19.27;82.42;100480.00;5109094;28;20152;-77
2022/06/27 07:28:53;;;;;;;12.02;8.77;;;;;;;19.37;80.49;100495.06;5110654;28;20092;-77
2022/06/27 07:31:59;;;;;;;10.75;7.95;;;;;;;19.52;79.22;100515.72;5110726;28;20055;-78
2022/06/27 07:35:14;;;;;;;;;;;;;;;19.58;78.99;100532.91;5089710;28;20554;-75
2022/06/27 07:38:22;;;;;;;12.40;8.73;;;;;;;19.33;78.90;100533.44;5089487;28;19965;-77
2022/06/27 07:41:30;;;;;;;11.77;7.63;;;;;;;19.51;78.81;100545.06;5078155;28;20067;-78
2022/06/27 07:44:34;;;;;;;14.10;7.68;;;;;;;19.47;79.14;100538.34;5090000;28;20460;-76
2022/06/27 07:47:38;;;;;;;12.43;7.45;;;;;;;19.41;79.78;100549.50;5089356;28;20838;-66
2022/06/27 07:50:46;;;;;;;10.30;6.80;;;;;;;19.41;80.22;100542.38;5090651;28;20043;-66
2022/06/27 07:53:53;;;;;;;14.15;8.30;;;;;;;19.66;80.22;100526.97;5090576;28;20089;-65
2022/06/27 07:57:00;;;;;;;9.90;6.57;;;;;;;19.74;79.26;100529.75;5090386;28;20059;-64
2022/06/27 08:00:04;;;;;;;8.70;6.35;;;;;;;19.94;78.14;100520.81;5090207;28;20096;-66
2022/06/27 08:06:43;;;;;;;11.88;7.43;;;;;;;19.82;76.29;100527.25;5109767;28;20101;-69
2022/06/27 08:09:47;;;;;;;10.20;7.05;;;;;;;20.16;77.01;100530.28;5097648;28;20071;-70
2022/06/27 08:12:51;;;;;;;11.50;7.15;;;;;;;20.50;76.97;100532.44;5110540;28;20070;-69
2022/06/27 08:15:56;;;;;;;7.97;6.10;;;;;;;20.71;75.51;100534.09;5110972;28;20050;-67
2022/06/27 08:19:09;;;;;;;7.88;5.72;;;;;;;20.66;73.62;100527.41;5089526;28;20059;-67
2022/06/27 08:22:14;;;;;;;9.35;6.20;;;;;;;20.92;74.77;100532.03;5089570;28;20071;-67
2022/06/27 08:25:21;;;;;;;6.25;5.07;;;;;;;20.75;74.43;100531.00;5066802;28;20482;-68
2022/06/27 08:28:30;;;;;;;7.57;5.68;;;;;;;20.56;73.61;100537.22;5089665;28;20374;-69
2022/06/27 08:31:39;;;;;;;7.88;5.40;;;;;;;20.33;73.89;100546.47;5085450;28;20050;-71
2022/06/27 08:34:47;;;;;;;6.05;5.05;;;;;;;20.19;73.20;100572.47;5108907;28;20041;-70
2022/06/27 08:37:54;;;;;;;7.90;5.30;;;;;;;20.23;74.87;100569.53;5108991;28;20062;-71
2022/06/27 08:40:59;;;;;;;9.27;5.10;;;;;;;20.49;74.55;100567.97;5108577;28;20046;-71
2022/06/27 08:48:28;;;;;;;7.25;5.05;;;;;;;20.56;75.05;100569.09;5071801;28;20417;-72
2022/06/27 08:51:37;;;;;;;;;;;;;;;20.55;74.38;100566.56;5088991;28;20050;-71
2022/06/27 08:54:41;;;;;;;10.25;5.22;;;;;;;20.64;75.42;100590.47;5088660;28;20400;-68
2022/06/27 08:57:47;;;;;;;7.57;5.35;;;;;;;20.57;73.15;100607.94;5088074;28;20520;-68
2022/06/27 09:00:51;;;;;;;8.13;4.88;;;;;;;20.37;73.40;100622.22;5100548;28;20042;-68
2022/06/27 09:04:06;;;;;;;8.18;4.78;;;;;;;20.29;73.40;100619.41;5109507;28;20160;-68
2022/06/27 09:07:10;;;;;;;9.07;5.10;;;;;;;20.10;75.08;100615.81;5109710;28;20138;-68
2022/06/27 09:10:26;;;;;;;5.45;4.82;;;;;;;19.96;75.91;100618.88;5109419;28;20089;-69
2022/06/27 09:13:31;;;;;;;6.15;4.13;;;;;;;19.87;76.38;100628.47;5109071;28;20058;-69
2022/06/27 09:16:36;;;;;;;7.43;3.50;;;;;;;20.13;74.28;100609.34;5109287;28;20390;-70
2022/06/27 09:19:56;;;;;;;8.05;3.67;;;;;;;20.17;75.31;100611.63;5108136;28;20108;-68
2022/06/27 09:23:00;;;;;;;8.30;3.88;;;;;;;19.98;76.29;100607.13;5109311;28;20090;-67
2022/06/27 09:26:06;;;;;;;7.35;4.15;;;;;;;19.91;77.19;100618.44;5109080;28;20078;-67
2022/06/27 09:29:14;;;;;;;3.92;3.40;;;;;;;19.70;77.04;100623.84;5086830;28;20063;-68
2022/06/27 09:32:25;;;;;;;7.20;4.65;;;;;;;19.94;76.60;100615.50;5088178;28;20618;-65
2022/06/27 09:35:34;;;;;;;8.00;4.00;;;;;;;20.15;75.84;100610.91;5088381;28;20647;-65
2022/06/27 09:38:43;;;;;;;5.47;4.10;;;;;;;20.02;74.64;100609.50;5087931;28;20051;-66
2022/06/27 09:46:03;;;;;;;7.63;3.63;;;;;;;19.76;75.29;100610.03;5086192;28;20042;-69
2022/06/27 09:49:08;;;;;;;5.82;3.60;;;;;;;19.77;75.57;100616.19;5086838;28;20575;-69
2022/06/27 09:52:23;;;;;;;5.68;3.47;;;;;;;19.88;75.24;100610.78;5086844;28;20046;-68
2022/06/27 09:55:27;;;;;;;6.03;3.78;;;;;;;20.05;74.53;100612.72;5086495;28;20455;-68
2022/06/27 09:58:33;;;;;;;8.98;4.28;;;;;;;20.26;73.31;100625.00;5102295;28;20047;-68
2022/06/27 10:01:37;;;;;;;9.52;3.80;;;;;;;20.15;73.95;100620.69;5106424;28;20116;-68
2022/06/27 10:04:43;;;;;;;4.88;3.30;;;;;;;20.20;73.72;100635.22;5108424;28;20046;-69
2022/06/27 10:08:03;;;;;;;6.43;3.50;;;;;;;20.33;73.15;100640.25;5108673;28;20041;-68
2022/06/27 10:11:08;;;;;;;6.75;3.00;;;;;;;20.35;73.61;100642.75;5106756;28;20091;-68
2022/06/27 10:14:26;;;;;;;5.47;3.30;;;;;;;20.37;73.38;100638.16;5106922;28;20050;-69
2022/06/27 10:17:33;;;;;;;6.68;3.15;;;;;;;20.06;74.55;100651.56;5107529;28;20606;-70
2022/06/27 10:20:39;;;;;;;6.10;3.22;;;;;;;20.18;74.50;100661.06;5107642;28;20038;-69
2022/06/27 10:23:47;;;;;;;6.20;3.17;;;;;;;20.03;76.00;100646.53;5109066;28;20050;-69
2022/06/27 10:26:54;;;;;;;5.13;2.95;;;;;;;20.19;76.07;100644.16;5109186;28;20518;-68
2022/06/27 10:29:59;;;;;;;8.48;2.85;;;;;;;20.01;76.06;100648.50;5109138;28;20047;-68
2022/06/27 10:33:24;;;;;;;8.13;3.10;;;;;;;20.02;76.25;100644.84;5109181;28;20051;-68
2022/06/27 10:36:27;;;;;;;5.05;3.13;;;;;;;20.39;76.30;100636.22;5108483;28;20055;-68
2022/06/27 10:39:31;;;;;;;8.18;3.00;;;;;;;20.70;77.29;100646.66;5108161;28;20099;-68
2022/06/27 10:42:55;;;;;;;6.13;3.47;;;;;;;20.40;75.34;100661.78;5091704;28;20109;-68
2022/06/27 10:45:58;;;;;;;5.72;2.88;;;;;;;20.49;76.75;100652.13;5092068;28;20669;-68
2022/06/27 10:49:17;;;;;;;7.55;2.42;;;;;;;20.57;76.00;100653.13;5092327;28;20046;-69
2022/06/27 10:52:24;;;;;;;6.15;2.15;;;;;;;20.59;77.06;100651.16;5091947;28;20097;-68
2022/06/27 10:55:29;;;;;;;4.13;2.33;;;;;;;20.57;77.78;100655.78;5072712;28;20039;-68
2022/06/27 10:58:35;;;;;;;7.00;2.05;;;;;;;20.57;74.22;100663.75;5091914;28;20046;-68
2022/06/27 11:02:05;;;;;;;5.40;2.20;;;;;;;20.55;75.03;100646.25;5092111;28;20047;-68
2022/06/27 11:05:10;;;;;;;6.07;2.03;;;;;;;20.82;75.22;100653.50;5092300;28;20074;-67
2022/06/27 11:08:15;;;;;;;5.35;1.83;;;;;;;20.57;75.21;100655.78;5092508;28;20051;-67
2022/06/27 11:11:21;;;;;;;4.45;1.70;;;;;;;20.58;73.91;100651.28;5091061;28;20042;-67
2022/06/27 11:14:26;;;;;;;4.05;1.42;;;;;;;20.74;73.41;100656.03;5090393;28;20109;-67
2022/06/27 11:17:40;;;;;;;3.97;1.85;;;;;;;20.74;72.47;100656.03;5090720;28;20098;-67
2022/06/27 11:20:43;;;;;;;2.85;1.75;;;;;;;20.71;73.65;100661.63;5091511;28;20137;-68
2022/06/27 11:24:01;;;;;;;2.72;1.40;;;;;;;20.65;74.35;100658.56;5090591;28;20050;-71
2022/06/27 11:27:04;;;;;;;2.97;1.70;;;;;;;20.52;73.40;100668.66;5090958;28;20043;-67
2022/06/27 11:33:33;;;;;;;4.57;1.45;;;;;;;20.80;73.37;100650.13;5091719;28;20039;-68
2022/06/27 11:36:39;;;;;;;3.13;1.35;;;;;;;20.60;73.59;100655.50;5102102;28;20668;-68
2022/06/27 11:40:02;;;;;;;5.35;1.88;;;;;;;20.74;74.86;100640.94;5091058;28;20463;-66
2022/06/27 11:43:08;;;;;;;3.33;1.73;;;;;;;20.66;75.79;100654.91;5091548;28;20455;-67
2022/06/27 11:47:04;;;;;;;3.28;1.55;;;;;;;20.80;73.78;100639.50;5091965;28;20116;-70
2022/06/27 11:50:13;;;;;;;4.15;1.45;;;;;;;20.49;74.55;100655.63;5090252;28;20035;-68
2022/06/27 11:53:17;;;;;;;2.30;1.40;;;;;;;20.77;74.53;100671.69;5108065;28;20050;-67
2022/06/27 11:56:28;;;;;;;3.63;1.50;;;;;;;20.73;73.91;100672.97;5111639;28;20054;-67
2022/06/27 11:59:32;;;;;;;2.95;1.80;;;;;;;20.80;75.34;100674.88;5111469;28;20046;-67
2022/06/27 12:02:38;;;;;;;5.65;1.92;;;;;;;21.14;72.36;100659.28;5110976;28;20105;-67
2022/06/27 12:05:44;;;;;;;3.60;1.40;;;;;;;21.02;72.91;100663.09;5110687;28;20093;-68
2022/06/27 12:09:15;;;;;;;6.20;1.70;;;;;;;21.18;71.85;100659.81;5111304;28;20349;-67
2022/06/27 12:12:25;;;;;;;6.25;1.50;;;;;;;21.01;72.94;100664.09;5110040;28;20138;-68
2022/06/27 12:15:30;;;;;;;3.22;1.25;;;;;;;21.09;70.66;100660.69;5109193;28;20088;-68
2022/06/27 12:18:36;;;;;;;3.90;2.28;;;;;;;21.23;70.75;100660.22;5109143;28;20074;-67
2022/06/27 12:21:40;;;;;;;2.45;1.30;;;;;;;21.47;69.52;100654.41;5109227;28;20413;-67
2022/06/27 12:24:45;;;;;;;7.38;1.70;;;;;;;21.55;68.14;100649.19;5111239;28;20587;-67
2022/06/27 12:27:52;;;;;;;3.58;1.77;;;;;;;21.90;67.22;100654.75;5098257;28;20078;-68
2022/06/27 12:31:13;;;;;;;4.10;1.88;;;;;;;22.06;66.64;100654.91;5110197;28;20043;-68
2022/06/27 12:34:16;;;;;;;3.53;1.70;;;;;;;21.99;67.18;100652.00;5109898;28;20043;-68
2022/06/27 12:37:23;;;;;;;3.72;1.58;;;;;;;21.76;67.43;100658.72;5111071;28;20074;-68
2022/06/27 12:40:31;;;;;;;2.92;1.63;;;;;;;21.75;67.59;100651.75;5110996;28;20077;-68
2022/06/27 12:43:35;;;;;;;3.60;1.40;;;;;;;21.72;67.26;100647.56;5110180;28;20050;-68
2022/06/27 12:46:39;;;;;;;3.97;2.10;;;;;;;22.12;66.59;100650.81;5097747;28;20046;-68
2022/06/27 12:49:43;;;;;;;4.05;2.08;;;;;;;21.87;63.65;100650.56;5110089;28;20096;-69
2022/06/27 12:52:50;;;;;;;2.70;1.73;;;;;;;21.91;64.09;100646.59;5110375;28;20042;-69
2022/06/27 12:55:55;;;;;;;3.05;1.65;;;;;;;21.95;64.51;100648.00;5109628;28;20042;-64
2022/06/27 12:59:05;;;;;;;2.95;1.60;;;;;;;21.98;63.20;100646.81;5110671;28;20088;-69
2022/06/27 13:02:29;;;;;;;2.80;1.45;;;;;;;21.89;63.11;100664.56;5109529;28;20054;-69
2022/06/27 13:05:33;;;;;;;3.28;1.48;;;;;;;22.09;62.47;100653.78;5087732;28;20051;-69
2022/06/27 13:08:41;;;;;;;2.67;1.30;;;;;;;22.01;63.16;100673.97;5088491;28;20101;-68
2022/06/27 13:11:45;;;;;;;8.75;2.10;;;;;;;21.94;62.90;100670.25;5089938;28;20046;-69
2022/06/27 13:14:57;;;;;;;4.57;1.30;;;;;;;21.79;63.46;100671.75;5090075;28;20051;-68
2022/06/27 13:18:05;;;;;;;2.40;1.55;;;;;;;22.36;62.31;100655.53;5097742;28;20046;-69
2022/06/27 13:21:10;;;;;;;3.53;1.80;;;;;;;22.59;61.43;100666.53;5110138;28;20031;-67
2022/06/27 13:24:15;;;;;;;5.90;1.63;;;;;;;22.63;61.93;100678.59;5110556;28;20450;-68
2022/06/27 13:27:19;;;;;;;3.10;1.65;;;;;;;22.41;62.85;100680.72;5110089;28;20046;-66
2022/06/27 13:30:24;;;;;;;3.95;1.60;;;;;;;22.22;62.02;100708.34;5109910;28;20100;-67
2022/06/27 13:33:29;;;;;;;2.20;1.08;;;;;;;22.24;61.76;100710.88;5108357;28;20049;-68
2022/06/27 13:36:33;;;;;;;2.38;0.90;;;;;;;22.15;61.01;100717.09;5109875;28;20166;-68
2022/06/27 13:39:38;;;;;;;3.25;1.25;;;;;;;23.58;56.71;100703.50;5109497;28;20702;-68
2022/06/27 13:42:42;;;;;;;2.95;1.10;;;;;;;23.17;58.14;100720.16;5109628;28;20047;-68
2022/06/27 13:45:45;;;;;;;4.43;1.48;;;;;;;24.51;53.11;100708.81;5109351;28;20046;-68
2022/06/27 13:48:50;;;;;;;2.60;0.88;;;;;;;23.83;53.87;100715.97;5109082;28;20131;-68
2022/06/27 13:51:54;;;;;;;2.53;1.00;;;;;;;22.85;55.73;100715.41;5108934;28;20047;-69
2022/06/27 13:54:58;;;;;;;5.10;1.27;;;;;;;22.70;57.83;100709.78;5108104;28;20082;-69
2022/06/27 13:58:07;;;;;;;2.47;1.00;;;;;;;22.50;58.70;100708.28;5107138;28;20100;-71
2022/06/27 14:01:14;;;;;;;3.20;0.82;;;;;;;22.48;59.48;100718.25;5108805;28;20569;-69
2022/06/27 14:04:30;;;;;;;3.65;1.00;;;;;;;22.61;59.25;100716.03;5108594;28;20104;-69
2022/06/27 14:07:39;;;;;;;3.17;0.90;;;;;;;22.35;59.26;100734.63;5108241;28;20141;-69
2022/06/27 14:10:56;;;;;;;4.28;1.23;;;;;;;22.12;59.52;100752.84;5108473;28;20171;-69
2022/06/27 14:13:59;;;;;;;3.42;0.98;;;;;;;21.76;61.82;100766.06;5107810;28;20112;-70
2022/06/27 14:17:03;;;;;;;2.65;1.10;;;;;;;21.59;60.31;100770.31;5108037;28;20737;-71
2022/06/27 14:20:09;;;;;;;1.98;1.10;;;;;;;21.41;61.23;100771.19;5107558;28;20504;-69
2022/06/27 14:23:15;;;;;;;3.13;1.08;;;;;;;21.48;61.14;100759.03;5108573;28;20115;-68
2022/06/27 14:26:19;;;;;;;2.75;1.00;;;;;;;21.66;61.62;100769.72;5108293;28;20135;-69
2022/06/27 14:29:24;;;;;;;4.63;1.20;;;;;;;21.73;62.20;100776.13;5107230;28;20046;-68
2022/06/27 14:32:28;;;;;;;2.33;0.88;;;;;;;21.45;59.92;100768.13;5107921;28;20062;-69
2022/06/27 14:35:32;;;;;;;3.45;0.88;;;;;;;21.45;59.91;100776.09;5108500;28;20105;-67
2022/06/27 14:38:39;;;;;;;1.77;0.75;;;;;;;21.39;59.07;100768.69;5108340;28;20082;-68
2022/06/27 14:41:46;;;;;;;2.50;0.70;;;;;;;21.37;59.26;100768.00;5107045;28;20430;-68
2022/06/27 14:44:50;;;;;;;2.38;0.90;;;;;;;21.31;58.99;100772.06;5107223;28;20092;-69
2022/06/27 14:47:56;;;;;;;1.98;0.70;;;;;;;21.37;59.42;100775.97;5100554;28;20043;-68
2022/06/27 14:51:00;;;;;;;2.03;1.00;;;;;;;21.21;58.55;100781.03;5087329;28;20054;-68
2022/06/27 14:54:04;;;;;;;3.15;1.02;;;;;;;21.37;61.51;100778.63;5075302;28;20054;-65
2022/06/27 14:57:08;;;;;;;2.63;0.80;;;;;;;21.93;58.53;100787.56;5087730;28;20073;-69